Flight Track Log - Related Links

Times and Time Zones

All times are in EDT time to prevent confusion due to time zone crossing. See the SKW5162 flight status page for this flight to view local times or setup timezone preferences in your user account.

Time Position Orientation Groundspeed Altitude Reporting Facility
EDT Latitude Longitude Course Direction KTS MPH feet Rate Location/Type
Sat 08:51:06 PM 29.9789 -95.3006 27° Northeast 166 191 700  Level Houston Center
Sat 08:52:19 PM 30.0428 -95.2878 10° North 290 334 1,800 1,453 Climbing Houston Center
Sat 08:53:14 PM 30.1131 -95.2875 360° North 279 321 3,800 2,328 Climbing Houston Center
Sat 08:54:00 PM 30.4506 -95.1396 27° Northeast  Level FlightAware Approximate
Sat 08:54:15 PM 30.1944 -95.2828 North 293 337 6,300  Level Houston Center
Sat 08:55:00 PM 30.5629 -95.0769 23° Northeast  Level FlightAware Approximate
Sat 08:55:16 PM 30.2736 -95.2414 24° Northeast 315 362 8,400  Level Houston Center
Sat 08:56:00 PM 30.6716 -95.0071 27° Northeast  Level FlightAware Approximate
Sat 08:56:17 PM 30.3550 -95.1994 24° Northeast 319 367 10,400  Level Houston Center
Sat 08:57:18 PM 30.4553 -95.1450 25° Northeast 364 419 12,100 1,854 Climbing Houston Center
Sat 08:58:20 PM 30.5489 -95.0944 25° Northeast 371 427 14,200 1,902 Climbing Houston Center
Sat 08:59:21 PM 30.6436 -95.0419 25° Northeast 376 433 16,000 1,770 Climbing Houston Center
Sat 09:00:22 PM 30.7383 -94.9817 29° Northeast 390 449 17,800 1,574 Climbing Houston Center
Sat 09:01:23 PM 30.8350 -94.9211 28° Northeast 400 460 19,200 1,426 Climbing Houston Center
Sat 09:02:24 PM 30.9358 -94.8583 28° Northeast 410 472 20,700 1,328 Climbing Houston Center
Sat 09:03:25 PM 31.0400 -94.7944 28° Northeast 422 486 21,900 1,230 Climbing Houston Center
Sat 09:04:26 PM 31.1444 -94.7286 28° Northeast 432 497 23,200 1,436 Climbing Houston Center
Sat 09:05:22 PM 31.2603 -94.6528 29° Northeast 429 494 24,700 1,293 Climbing Fort Worth Center
Sat 09:06:22 PM 31.3592 -94.5817 32° Northeast 434 499 25,700 1,000 Climbing Fort Worth Center
Sat 09:07:22 PM 31.4719 -94.4956 33° Northeast 446 513 26,700 900 Climbing Fort Worth Center
Sat 09:08:22 PM 31.5719 -94.3997 39° Northeast 457 526 27,500 850 Climbing Fort Worth Center
Sat 09:09:22 PM 31.6761 -94.3036 38° Northeast 467 537 28,400 1,000 Climbing Fort Worth Center
Sat 09:10:22 PM 31.7694 -94.1978 44° Northeast 472 543 29,500 1,100 Climbing Fort Worth Center
Sat 09:11:22 PM 31.8647 -94.0844 45° Northeast 472 543 30,600 850 Climbing Fort Worth Center
Sat 09:12:22 PM 31.9575 -93.9708 46° Northeast 472 543 31,200 850 Climbing Fort Worth Center
Sat 09:13:22 PM 32.0403 -93.8672 47° Northeast 472 543 32,300 950 Climbing Fort Worth Center
Sat 09:14:22 PM 32.1353 -93.7556 45° Northeast 479 551 33,100 950 Climbing Fort Worth Center
Sat 09:15:22 PM 32.2256 -93.6367 48° Northeast 474 545 34,200 1,100 Climbing Fort Worth Center
Sat 09:16:22 PM 32.3183 -93.5244 46° Northeast 474 545 35,300 850 Climbing Fort Worth Center
Sat 09:17:22 PM 32.4108 -93.4122 46° Northeast 474 545 35,900 700 Climbing Fort Worth Center
Sat 09:18:22 PM 32.5011 -93.3000 46° Northeast 474 545 36,700 550 Climbing Fort Worth Center
Sat 09:19:22 PM 32.5914 -93.1872 46° Northeast 474 545 37,000 150 Climbing Fort Worth Center
Sat 09:20:22 PM 32.6856 -93.0719 46° Northeast 474 545 37,000  Level Fort Worth Center
Sat 09:21:22 PM 32.7814 -92.9536 46° Northeast 479 551 37,000  Level Fort Worth Center
Sat 09:22:22 PM 32.8733 -92.8378 47° Northeast 479 551 37,000  Level Fort Worth Center
Sat 09:23:22 PM 32.9811 -92.7033 46° Northeast 485 558 37,000  Level Fort Worth Center
Sat 09:24:22 PM 33.0786 -92.5792 47° Northeast 495 570 37,000  Level Fort Worth Center
Sat 09:25:22 PM 33.1761 -92.4597 46° Northeast 495 570 37,000  Level Fort Worth Center
Sat 09:26:20 PM 33.2594 -92.3547 46° Northeast 523 602 37,000  Level Memphis Center
Sat 09:27:20 PM 33.3594 -92.2325 46° Northeast 529 609 37,000  Level Memphis Center
Sat 09:28:20 PM 33.4531 -92.1075 48° Northeast 515 593 37,000  Level Memphis Center
Sat 09:29:20 PM 33.5528 -91.9850 46° Northeast 510 587 37,000  Level Memphis Center
Sat 09:30:20 PM 33.6461 -91.8619 48° Northeast 505 581 37,000  Level Memphis Center
Sat 09:31:20 PM 33.7456 -91.7386 46° Northeast 505 581 37,000  Level Memphis Center
Sat 09:32:20 PM 33.8347 -91.6125 50° Northeast 500 575 37,000  Level Memphis Center
Sat 09:33:20 PM 33.9319 -91.4864 47° Northeast 500 575 37,000  Level Memphis Center
Sat 09:34:20 PM 34.0289 -91.3597 47° Northeast 505 581 37,000  Level Memphis Center
Sat 09:35:20 PM 34.1281 -91.2353 46° Northeast 512 589 37,000  Level Memphis Center
Sat 09:36:21 PM 34.2228 -91.1083 48° Northeast 506 582 37,000  Level Memphis Center
Sat 09:37:20 PM 34.3278 -90.9733 47° Northeast 501 577 37,000  Level Memphis Center
Sat 09:38:20 PM 34.4222 -90.8506 47° Northeast 501 577 37,000  Level Memphis Center
Sat 09:39:20 PM 34.5167 -90.7200 49° Northeast 496 571 37,000  Level Memphis Center
Sat 09:40:20 PM 34.6108 -90.5969 47° Northeast 496 571 37,000  Level Memphis Center
Sat 09:41:20 PM 34.7047 -90.4733 47° Northeast 496 571 37,000  Level Memphis Center
Sat 09:42:20 PM 34.8008 -90.3469 47° Northeast 496 571 37,000  Level Memphis Center
Sat 09:43:21 PM 34.8947 -90.2231 47° Northeast 496 571 37,000  Level Memphis Center
Sat 09:44:20 PM 34.9800 -90.1086 48° Northeast 501 577 37,000  Level Memphis Center
Sat 09:45:20 PM 35.0756 -89.9789 48° Northeast 501 577 37,000  Level Memphis Center
Sat 09:46:20 PM 35.1669 -89.8517 49° Northeast 501 577 37,000  Level Memphis Center
Sat 09:47:20 PM 35.2603 -89.7214 49° Northeast 501 577 37,000  Level Memphis Center
Sat 09:48:20 PM 35.3594 -89.5831 49° Northeast 496 571 37,000  Level Memphis Center
Sat 09:49:20 PM 35.4525 -89.4547 48° Northeast 489 563 37,000  Level Memphis Center
Sat 09:50:20 PM 35.5411 -89.3289 49° Northeast 489 563 37,000  Level Memphis Center
Sat 09:51:20 PM 35.6319 -89.2050 48° Northeast 489 563 37,000  Level Memphis Center
Sat 09:52:20 PM 35.7183 -89.0786 50° Northeast 489 563 37,000  Level Memphis Center
Sat 09:53:20 PM 35.8086 -88.9492 49° Northeast 484 557 37,000  Level Memphis Center
Sat 09:54:20 PM 35.8989 -88.8219 49° Northeast 484 557 37,000  Level Memphis Center
Sat 09:55:20 PM 35.9911 -88.6947 48° Northeast 489 563 37,000  Level Memphis Center
Sat 09:56:20 PM 36.0831 -88.5694 48° Northeast 489 563 37,000  Level Memphis Center
Sat 09:57:20 PM 36.1731 -88.4442 48° Northeast 484 557 37,000  Level Memphis Center
Sat 09:58:20 PM 36.2606 -88.3183 49° Northeast 484 557 37,000  Level Memphis Center
Sat 09:59:20 PM 36.3522 -88.1900 48° Northeast 489 563 37,000  Level Memphis Center
Sat 10:00:20 PM 36.4397 -88.0689 48° Northeast 483 556 37,000  Level Memphis Center
Sat 10:01:20 PM 36.5247 -87.9400 51° Northeast 476 548 37,000  Level Memphis Center
Sat 10:02:20 PM 36.6139 -87.8131 49° Northeast 476 548 37,000  Level Memphis Center
Sat 10:03:20 PM 36.7011 -87.6889 49° Northeast 476 548 37,000  Level Memphis Center
Sat 10:04:20 PM 36.7878 -87.5617 50° Northeast 476 548 37,000  Level Memphis Center
Sat 10:05:20 PM 36.8744 -87.4342 50° Northeast 476 548 37,000  Level Memphis Center
Sat 10:06:20 PM 36.9508 -87.3222 49° Northeast 476 548 37,000  Level Memphis Center
Sat 10:07:20 PM 37.0353 -87.1944 50° Northeast 471 542 37,000  Level Memphis Center
Sat 10:09:47 PM 37.2494 -86.8769 50° Northeast 477 549 37,000  Level Indianapolis Center
Sat 10:10:48 PM 37.3339 -86.7483 50° Northeast 473 544 37,000  Level Indianapolis Center
Sat 10:11:48 PM 37.3889 -86.5950 66° East 477 549 37,000  Level Indianapolis Center
Sat 10:12:49 PM 37.4394 -86.4386 68° East 480 552 37,000  Level Indianapolis Center
Sat 10:13:50 PM 37.4897 -86.2819 68° East 478 550 37,000  Level Indianapolis Center
Sat 10:14:50 PM 37.5394 -86.1267 68° East 475 547 37,000  Level Indianapolis Center
Sat 10:15:51 PM 37.5825 -85.9956 67° East 473 544 37,000  Level Indianapolis Center
Sat 10:16:51 PM 37.6314 -85.8411 68° East 474 545 37,000  Level Indianapolis Center
Sat 10:17:52 PM 37.6800 -85.6856 68° East 476 548 37,000  Level Indianapolis Center
Sat 10:18:52 PM 37.7344 -85.5103 69° East 468 539 37,000  Level Indianapolis Center
Sat 10:19:53 PM 37.7828 -85.3575 68° East 468 539 37,000  Level Indianapolis Center
Sat 10:20:53 PM 37.8300 -85.2031 69° East 468 539 37,000  Level Indianapolis Center
Sat 10:21:54 PM 37.8783 -85.0478 68° East 473 544 37,000  Level Indianapolis Center
Sat 10:22:54 PM 37.9258 -84.8928 69° East 471 542 37,000  Level Indianapolis Center
Sat 10:23:55 PM 37.9708 -84.7381 70° East 466 536 37,000  Level Indianapolis Center
Sat 10:24:55 PM 38.0183 -84.5844 69° East 466 536 37,000  Level Indianapolis Center
Sat 10:25:56 PM 38.0658 -84.4297 69° East 468 539 37,000  Level Indianapolis Center
Sat 10:26:56 PM 38.1108 -84.2758 70° East 466 536 37,000  Level Indianapolis Center
Sat 10:27:57 PM 38.1575 -84.1189 69° East 470 541 37,000  Level Indianapolis Center
Sat 10:28:57 PM 38.2036 -83.9633 69° East 469 540 37,000  Level Indianapolis Center
Sat 10:29:58 PM 38.2492 -83.8072 70° East 470 541 37,000  Level Indianapolis Center
Sat 10:30:58 PM 38.2939 -83.6525 70° East 467 537 37,000  Level Indianapolis Center
Sat 10:31:59 PM 38.3394 -83.4972 69° East 466 536 37,000  Level Indianapolis Center
Sat 10:32:59 PM 38.3842 -83.3414 70° East 467 537 37,000  Level Indianapolis Center
Sat 10:34:00 PM 38.4419 -83.1919 64° Northeast 471 542 37,000  Level Indianapolis Center
Sat 10:35:00 PM 38.5203 -83.0586 53° Northeast 469 540 37,000 -248 Level Indianapolis Center
Sat 10:36:01 PM 38.5983 -82.9261 53° Northeast 467 537 36,500 -738 Descending Indianapolis Center
Sat 10:37:02 PM 38.6708 -82.8017 53° Northeast 463 533 35,500 -992 Descending Indianapolis Center
Sat 10:38:02 PM 38.7478 -82.6686 53° Northeast 465 535 34,500 -992 Descending Indianapolis Center
Sat 10:39:03 PM 38.8261 -82.5336 53° Northeast 467 537 33,500 -992 Descending Indianapolis Center
Sat 10:40:03 PM 38.9042 -82.3997 53° Northeast 467 537 32,500 -992 Descending Indianapolis Center
Sat 10:41:04 PM 38.9819 -82.2628 54° Northeast 472 543 31,500 -992 Descending Indianapolis Center
Sat 10:42:04 PM 39.0606 -82.1267 53° Northeast 471 542 30,500 -992 Descending Indianapolis Center
Sat 10:43:05 PM 39.1492 -81.9989 48° Northeast 476 548 29,500 -1,339 Descending Indianapolis Center
Sat 10:44:05 PM 39.2433 -81.8758 45° Northeast 478 550 27,800 -1,835 Descending Indianapolis Center
Sat 10:45:06 PM 39.3342 -81.7572 45° Northeast 464 534 25,800 -2,016 Descending Indianapolis Center
Sat 10:46:07 PM 39.4247 -81.6367 46° Northeast 463 533 23,700 -2,033 Descending Indianapolis Center
Sat 10:47:07 PM 39.5128 -81.5211 45° Northeast 450 518 21,700 -1,488 Descending Indianapolis Center
Sat 10:48:08 PM 39.5989 -81.4053 46° Northeast 444 511 20,700 -1,156 Descending Indianapolis Center
Sat 10:48:56 PM 39.6856 -81.2925 45° Northeast 443 510 19,600 -1,444 Descending Cleveland Center
Sat 10:49:56 PM 39.7675 -81.1828 46° Northeast 438 504 18,100 -1,700 Descending Cleveland Center
Sat 10:50:56 PM 39.8494 -81.0725 46° Northeast 427 491 16,200 -1,950 Descending Cleveland Center
Sat 10:51:56 PM 39.9289 -80.9647 46° Northeast 421 484 14,200 -2,000 Descending Cleveland Center
Sat 10:52:56 PM 40.0106 -80.8678 42° Northeast 410 472 12,200 -2,050 Descending Cleveland Center
Sat 10:53:56 PM 40.0961 -80.7867 36° Northeast 398 458 10,100 -1,100 Descending Cleveland Center
Sat 10:54:56 PM 40.1817 -80.7025 37° Northeast 380 437 10,000 -500 Descending Cleveland Center
Sat 10:55:56 PM 40.2506 -80.6347 37° Northeast 347 399 9,100 -1,250 Descending Cleveland Center
Sat 10:56:56 PM 40.3111 -80.5750 37° Northeast 303 349 7,500 -2,150 Descending Cleveland Center
Sat 10:57:56 PM 40.3653 -80.5231 36° Northeast 262 302 4,800 -1,750 Descending Cleveland Center
Sat 10:58:56 PM 40.4131 -80.4767 36° Northeast 230 265 4,000 -600 Descending Cleveland Center
Sat 10:59:56 PM 40.4569 -80.4358 35° Northeast 202 232 3,600 -400 Descending Cleveland Center

Login

Don't have an account? Register now (free) for customized features, flight alerts, and more!